KR-0323 weather

Meeting Plaza Heliport
Busan, Busan Gwang'yeogsi, South Korea

Public forecast

Using degrees Celsius for public forecast. Weather courtesy of forecast.io.

METAR (pilot weather report)

Closest report is Gimhae International Airport, 10.4 nm (19.2 km) W. Retrieved 2019/08/17 16:00 UTC (15 minutes ago):

RKPK 171600Z 26005KT CAVOK 26/22 Q1004

TAF (pilot weather forecast)

Closest forecast is Gimhae International Airport, 10.4 nm (19.2 km) W. Retrieved 2019/08/17 12:00 UTC (4 hours ago):

TAF RKPK 171100Z 1712/1818 18008KT 9999 SCT030 SCT200 TN26/1720Z TX32/1804Z BECMG 1717/1718 33006KT BKN030 BKN200 BECMG 1723/1724 18010KT FEW030 SCT200